sensor_id;sensor_type;location;lat;lon;timestamp;pressure;altitude;pressure_sealevel;temperature;humidity
50636;BME280;36598;46.054;11.130;2022-10-30T00:02:23;100150.75;;;14.45;72.64
50636;BME280;36598;46.054;11.130;2022-10-30T00:04:48;100150.91;;;14.35;72.95
50636;BME280;36598;46.054;11.130;2022-10-30T00:07:13;100150.09;;;14.34;72.85
50636;BME280;36598;46.054;11.130;2022-10-30T00:09:39;100153.56;;;14.42;72.04
50636;BME280;36598;46.054;11.130;2022-10-30T00:12:04;100150.69;;;14.18;73.43
50636;BME280;36598;46.054;11.130;2022-10-30T00:14:29;100150.31;;;14.16;73.65
50636;BME280;36598;46.054;11.130;2022-10-30T00:16:54;100151.28;;;14.02;73.59
50636;BME280;36598;46.054;11.130;2022-10-30T00:19:20;100145.00;;;13.95;73.86
50636;BME280;36598;46.054;11.130;2022-10-30T00:21:45;100151.47;;;13.85;74.49
50636;BME280;36598;46.054;11.130;2022-10-30T00:24:10;100149.06;;;13.49;76.07
50636;BME280;36598;46.054;11.130;2022-10-30T00:26:36;100148.94;;;13.97;74.61
50636;BME280;36598;46.054;11.130;2022-10-30T00:29:01;100149.22;;;13.72;75.10
50636;BME280;36598;46.054;11.130;2022-10-30T00:31:26;100152.72;;;13.80;75.15
50636;BME280;36598;46.054;11.130;2022-10-30T00:33:52;100145.91;;;13.85;75.19
50636;BME280;36598;46.054;11.130;2022-10-30T00:36:18;100143.34;;;14.01;74.71
50636;BME280;36598;46.054;11.130;2022-10-30T00:38:43;100141.91;;;13.86;74.36
50636;BME280;36598;46.054;11.130;2022-10-30T00:41:15;100141.47;;;13.91;74.52
50636;BME280;36598;46.054;11.130;2022-10-30T00:43:40;100141.00;;;13.96;74.41
50636;BME280;36598;46.054;11.130;2022-10-30T00:48:37;100142.06;;;14.09;74.11
50636;BME280;36598;46.054;11.130;2022-10-30T00:51:03;100140.03;;;14.13;73.75
50636;BME280;36598;46.054;11.130;2022-10-30T00:53:30;100142.19;;;14.29;73.08
50636;BME280;36598;46.054;11.130;2022-10-30T00:55:56;100133.72;;;14.09;73.92
50636;BME280;36598;46.054;11.130;2022-10-30T00:58:30;100140.63;;;14.28;72.54
50636;BME280;36598;46.054;11.130;2022-10-30T01:00:57;100140.47;;;14.08;73.27
50636;BME280;36598;46.054;11.130;2022-10-30T01:03:24;100138.81;;;14.14;73.28
50636;BME280;36598;46.054;11.130;2022-10-30T01:05:51;100137.94;;;14.21;72.88
50636;BME280;36598;46.054;11.130;2022-10-30T01:08:19;100140.41;;;13.77;74.30
50636;BME280;36598;46.054;11.130;2022-10-30T01:10:44;100132.91;;;14.09;72.99
50636;BME280;36598;46.054;11.130;2022-10-30T01:13:10;100136.16;;;14.03;73.24
50636;BME280;36598;46.054;11.130;2022-10-30T01:15:36;100132.22;;;14.01;73.39
50636;BME280;36598;46.054;11.130;2022-10-30T01:20:46;100124.63;;;14.05;72.73
50636;BME280;36598;46.054;11.130;2022-10-30T01:38:22;100125.47;;;13.98;73.48
50636;BME280;36598;46.054;11.130;2022-10-30T01:40:51;100115.59;;;13.94;73.65
50636;BME280;36598;46.054;11.130;2022-10-30T01:43:16;100117.34;;;13.81;73.93
50636;BME280;36598;46.054;11.130;2022-10-30T01:56:07;100114.00;;;13.59;75.01
50636;BME280;36598;46.054;11.130;2022-10-30T01:58:46;100112.16;;;13.45;75.33
50636;BME280;36598;46.054;11.130;2022-10-30T02:01:14;100115.69;;;13.49;75.57
50636;BME280;36598;46.054;11.130;2022-10-30T02:03:40;100114.41;;;13.57;75.38
50636;BME280;36598;46.054;11.130;2022-10-30T02:06:05;100116.22;;;13.37;75.35
50636;BME280;36598;46.054;11.130;2022-10-30T02:08:31;100107.13;;;13.70;74.30
50636;BME280;36598;46.054;11.130;2022-10-30T02:10:56;100108.72;;;13.71;74.58
50636;BME280;36598;46.054;11.130;2022-10-30T02:13:22;100113.03;;;13.35;75.46
50636;BME280;36598;46.054;11.130;2022-10-30T02:15:47;100108.78;;;13.64;74.61
50636;BME280;36598;46.054;11.130;2022-10-30T02:18:13;100105.75;;;13.48;75.15
50636;BME280;36598;46.054;11.130;2022-10-30T02:20:38;100099.41;;;13.47;74.66
50636;BME280;36598;46.054;11.130;2022-10-30T02:23:04;100104.34;;;13.70;74.25
50636;BME280;36598;46.054;11.130;2022-10-30T02:25:30;100102.63;;;13.46;75.36
50636;BME280;36598;46.054;11.130;2022-10-30T02:27:55;100101.81;;;13.49;74.89
50636;BME280;36598;46.054;11.130;2022-10-30T02:30:20;100108.09;;;13.53;73.97
50636;BME280;36598;46.054;11.130;2022-10-30T02:32:46;100108.50;;;13.51;74.52
50636;BME280;36598;46.054;11.130;2022-10-30T02:35:11;100102.59;;;13.49;75.00
50636;BME280;36598;46.054;11.130;2022-10-30T02:37:36;100103.06;;;13.41;75.29
50636;BME280;36598;46.054;11.130;2022-10-30T02:40:02;100112.22;;;13.38;75.28
50636;BME280;36598;46.054;11.130;2022-10-30T02:42:28;100105.13;;;13.33;75.60
50636;BME280;36598;46.054;11.130;2022-10-30T02:44:53;100107.72;;;13.06;76.02
50636;BME280;36598;46.054;11.130;2022-10-30T02:47:18;100103.53;;;12.80;78.21
50636;BME280;36598;46.054;11.130;2022-10-30T02:49:44;100099.78;;;13.04;76.83
50636;BME280;36598;46.054;11.130;2022-10-30T02:52:09;100102.84;;;13.17;76.33
50636;BME280;36598;46.054;11.130;2022-10-30T02:54:34;100093.72;;;13.17;76.27
50636;BME280;36598;46.054;11.130;2022-10-30T02:57:00;100089.44;;;13.05;76.27
50636;BME280;36598;46.054;11.130;2022-10-30T02:59:25;100098.09;;;13.14;76.99
50636;BME280;36598;46.054;11.130;2022-10-30T03:01:50;100099.63;;;13.19;75.57
50636;BME280;36598;46.054;11.130;2022-10-30T03:04:16;100103.16;;;13.30;75.84
50636;BME280;36598;46.054;11.130;2022-10-30T03:06:41;100097.41;;;13.03;76.80
50636;BME280;36598;46.054;11.130;2022-10-30T03:09:06;100104.69;;;12.86;77.24
50636;BME280;36598;46.054;11.130;2022-10-30T03:11:32;100099.50;;;12.88;77.05
50636;BME280;36598;46.054;11.130;2022-10-30T03:13:57;100105.47;;;12.87;76.71
50636;BME280;36598;46.054;11.130;2022-10-30T03:16:23;100109.59;;;12.64;78.49
50636;BME280;36598;46.054;11.130;2022-10-30T03:18:49;100102.22;;;12.99;76.66
50636;BME280;36598;46.054;11.130;2022-10-30T03:21:16;100101.81;;;12.97;77.32
50636;BME280;36598;46.054;11.130;2022-10-30T03:23:42;100089.13;;;12.96;76.32
50636;BME280;36598;46.054;11.130;2022-10-30T03:26:07;100095.97;;;12.84;77.36
50636;BME280;36598;46.054;11.130;2022-10-30T03:28:33;100100.03;;;12.72;78.01
50636;BME280;36598;46.054;11.130;2022-10-30T03:30:59;100100.25;;;12.92;77.24
50636;BME280;36598;46.054;11.130;2022-10-30T03:33:25;100102.66;;;12.94;76.83
50636;BME280;36598;46.054;11.130;2022-10-30T03:35:50;100100.94;;;13.11;75.52
50636;BME280;36598;46.054;11.130;2022-10-30T03:38:15;100107.63;;;13.13;75.99
50636;BME280;36598;46.054;11.130;2022-10-30T03:40:40;100099.78;;;13.01;75.37
50636;BME280;36598;46.054;11.130;2022-10-30T03:43:06;100103.22;;;13.19;74.93
50636;BME280;36598;46.054;11.130;2022-10-30T03:45:32;100099.69;;;13.15;74.57
50636;BME280;36598;46.054;11.130;2022-10-30T03:47:59;100105.31;;;13.08;74.88
50636;BME280;36598;46.054;11.130;2022-10-30T03:50:24;100107.75;;;13.02;75.41
50636;BME280;36598;46.054;11.130;2022-10-30T03:52:49;100109.22;;;13.14;74.58
50636;BME280;36598;46.054;11.130;2022-10-30T03:55:17;100109.59;;;13.16;74.25
50636;BME280;36598;46.054;11.130;2022-10-30T03:57:42;100109.19;;;13.18;74.18
50636;BME280;36598;46.054;11.130;2022-10-30T04:00:07;100112.28;;;13.31;73.98
50636;BME280;36598;46.054;11.130;2022-10-30T04:02:33;100113.94;;;13.21;74.57
50636;BME280;36598;46.054;11.130;2022-10-30T04:04:58;100115.50;;;13.22;74.59
50636;BME280;36598;46.054;11.130;2022-10-30T04:07:23;100116.41;;;13.12;74.88
50636;BME280;36598;46.054;11.130;2022-10-30T04:09:48;100109.78;;;12.95;75.88
50636;BME280;36598;46.054;11.130;2022-10-30T04:12:14;100110.53;;;12.99;75.93
50636;BME280;36598;46.054;11.130;2022-10-30T04:14:39;100111.06;;;12.79;76.06
50636;BME280;36598;46.054;11.130;2022-10-30T04:17:04;100123.31;;;12.89;76.10
50636;BME280;36598;46.054;11.130;2022-10-30T04:19:30;100119.03;;;12.77;76.39
50636;BME280;36598;46.054;11.130;2022-10-30T04:21:55;100116.59;;;12.83;76.61
50636;BME280;36598;46.054;11.130;2022-10-30T04:24:20;100118.56;;;12.90;75.81
50636;BME280;36598;46.054;11.130;2022-10-30T04:26:46;100118.19;;;12.84;76.07
50636;BME280;36598;46.054;11.130;2022-10-30T04:29:11;100116.56;;;12.90;76.47
50636;BME280;36598;46.054;11.130;2022-10-30T04:31:36;100119.78;;;12.85;75.74
50636;BME280;36598;46.054;11.130;2022-10-30T04:34:02;100114.91;;;12.96;75.61
50636;BME280;36598;46.054;11.130;2022-10-30T04:36:27;100119.81;;;12.82;75.72
50636;BME280;36598;46.054;11.130;2022-10-30T04:38:58;100112.41;;;12.61;77.32
50636;BME280;36598;46.054;11.130;2022-10-30T04:41:23;100112.94;;;12.34;78.14
50636;BME280;36598;46.054;11.130;2022-10-30T04:43:49;100112.16;;;12.34;79.09
50636;BME280;36598;46.054;11.130;2022-10-30T04:46:14;100115.63;;;12.48;78.90
50636;BME280;36598;46.054;11.130;2022-10-30T04:48:41;100116.16;;;12.29;78.51
50636;BME280;36598;46.054;11.130;2022-10-30T04:51:06;100110.84;;;12.52;77.77
50636;BME280;36598;46.054;11.130;2022-10-30T04:53:33;100109.59;;;12.64;76.78
50636;BME280;36598;46.054;11.130;2022-10-30T04:55:58;100107.84;;;12.85;75.55
50636;BME280;36598;46.054;11.130;2022-10-30T04:58:23;100109.38;;;12.93;75.44
50636;BME280;36598;46.054;11.130;2022-10-30T05:00:48;100108.13;;;13.01;74.35
50636;BME280;36598;46.054;11.130;2022-10-30T05:03:16;100106.25;;;12.87;74.83
50636;BME280;36598;46.054;11.130;2022-10-30T05:05:42;100102.66;;;12.94;74.85
50636;BME280;36598;46.054;11.130;2022-10-30T05:08:07;100108.44;;;13.14;73.59
50636;BME280;36598;46.054;11.130;2022-10-30T05:10:32;100103.75;;;13.03;74.30
50636;BME280;36598;46.054;11.130;2022-10-30T05:12:58;100104.56;;;13.00;74.25
50636;BME280;36598;46.054;11.130;2022-10-30T05:15:24;100111.19;;;13.17;73.09
50636;BME280;36598;46.054;11.130;2022-10-30T05:17:52;100106.69;;;12.82;75.21
50636;BME280;36598;46.054;11.130;2022-10-30T05:20:20;100109.44;;;12.89;74.86
50636;BME280;36598;46.054;11.130;2022-10-30T05:22:52;100108.66;;;12.85;75.20
50636;BME280;36598;46.054;11.130;2022-10-30T05:25:17;100111.84;;;12.84;74.84
50636;BME280;36598;46.054;11.130;2022-10-30T05:27:43;100108.09;;;12.49;76.98
50636;BME280;36598;46.054;11.130;2022-10-30T05:30:08;100108.09;;;12.49;77.35
50636;BME280;36598;46.054;11.130;2022-10-30T05:32:33;100102.94;;;12.51;76.62
50636;BME280;36598;46.054;11.130;2022-10-30T05:34:58;100102.69;;;12.24;77.89
50636;BME280;36598;46.054;11.130;2022-10-30T05:37:24;100099.63;;;12.04;79.00
50636;BME280;36598;46.054;11.130;2022-10-30T05:39:49;100098.66;;;12.39;77.48
50636;BME280;36598;46.054;11.130;2022-10-30T05:42:14;100102.66;;;12.27;77.69
50636;BME280;36598;46.054;11.130;2022-10-30T05:44:39;100105.31;;;12.49;76.91
50636;BME280;36598;46.054;11.130;2022-10-30T05:47:05;100108.63;;;12.22;77.63
50636;BME280;36598;46.054;11.130;2022-10-30T05:49:30;100101.75;;;12.52;76.45
50636;BME280;36598;46.054;11.130;2022-10-30T05:51:55;100114.06;;;12.47;77.21
50636;BME280;36598;46.054;11.130;2022-10-30T05:54:20;100110.44;;;12.54;76.89
50636;BME280;36598;46.054;11.130;2022-10-30T05:56:46;100107.25;;;12.59;76.87
50636;BME280;36598;46.054;11.130;2022-10-30T05:59:11;100113.75;;;12.27;77.31
50636;BME280;36598;46.054;11.130;2022-10-30T06:01:36;100110.50;;;12.47;76.66
50636;BME280;36598;46.054;11.130;2022-10-30T06:04:01;100117.19;;;12.53;76.37
50636;BME280;36598;46.054;11.130;2022-10-30T06:06:27;100118.81;;;12.50;76.45
50636;BME280;36598;46.054;11.130;2022-10-30T06:08:52;100119.56;;;12.54;75.96
50636;BME280;36598;46.054;11.130;2022-10-30T06:11:17;100119.78;;;12.85;75.29
50636;BME280;36598;46.054;11.130;2022-10-30T06:13:42;100127.50;;;12.56;75.79
50636;BME280;36598;46.054;11.130;2022-10-30T06:16:08;100127.81;;;12.72;75.85
50636;BME280;36598;46.054;11.130;2022-10-30T06:18:33;100126.63;;;12.66;76.17
50636;BME280;36598;46.054;11.130;2022-10-30T06:20:58;100122.91;;;12.91;74.56
50636;BME280;36598;46.054;11.130;2022-10-30T06:23:23;100125.41;;;12.71;75.82
50636;BME280;36598;46.054;11.130;2022-10-30T06:25:49;100133.16;;;12.97;73.86
50636;BME280;36598;46.054;11.130;2022-10-30T06:28:14;100125.97;;;13.07;73.67
50636;BME280;36598;46.054;11.130;2022-10-30T06:30:39;100127.56;;;13.04;73.07
50636;BME280;36598;46.054;11.130;2022-10-30T06:33:04;100130.47;;;13.39;72.50
50636;BME280;36598;46.054;11.130;2022-10-30T06:35:30;100130.53;;;13.32;72.07
50636;BME280;36598;46.054;11.130;2022-10-30T06:37:56;100128.69;;;13.59;70.97
50636;BME280;36598;46.054;11.130;2022-10-30T06:40:24;100133.66;;;13.41;72.37
50636;BME280;36598;46.054;11.130;2022-10-30T06:42:50;100128.50;;;13.36;71.74
50636;BME280;36598;46.054;11.130;2022-10-30T06:45:15;100130.13;;;13.33;72.37
50636;BME280;36598;46.054;11.130;2022-10-30T06:47:41;100134.69;;;13.58;71.20
50636;BME280;36598;46.054;11.130;2022-10-30T06:50:07;100129.81;;;13.20;72.79
50636;BME280;36598;46.054;11.130;2022-10-30T06:52:33;100127.81;;;13.66;71.63
50636;BME280;36598;46.054;11.130;2022-10-30T06:54:58;100140.03;;;13.79;70.46
50636;BME280;36598;46.054;11.130;2022-10-30T06:57:24;100134.50;;;13.75;70.60
50636;BME280;36598;46.054;11.130;2022-10-30T06:59:49;100137.66;;;14.12;68.83
50636;BME280;36598;46.054;11.130;2022-10-30T07:02:14;100137.06;;;14.27;68.34
50636;BME280;36598;46.054;11.130;2022-10-30T07:04:40;100145.97;;;14.15;68.97
50636;BME280;36598;46.054;11.130;2022-10-30T07:07:05;100138.09;;;14.41;67.76
50636;BME280;36598;46.054;11.130;2022-10-30T07:09:30;100142.16;;;14.33;68.46
50636;BME280;36598;46.054;11.130;2022-10-30T07:11:55;100140.44;;;13.74;69.73
50636;BME280;36598;46.054;11.130;2022-10-30T07:14:21;100138.72;;;13.49;71.80
50636;BME280;36598;46.054;11.130;2022-10-30T07:16:46;100137.25;;;13.79;70.14
50636;BME280;36598;46.054;11.130;2022-10-30T07:19:11;100140.34;;;14.19;69.05
50636;BME280;36598;46.054;11.130;2022-10-30T07:21:36;100141.59;;;14.48;68.00
50636;BME280;36598;46.054;11.130;2022-10-30T07:24:02;100140.41;;;14.15;69.06
50636;BME280;36598;46.054;11.130;2022-10-30T07:26:27;100148.22;;;14.58;67.08
50636;BME280;36598;46.054;11.130;2022-10-30T07:28:52;100138.47;;;14.73;66.59
50636;BME280;36598;46.054;11.130;2022-10-30T07:31:17;100137.03;;;14.62;66.70
50636;BME280;36598;46.054;11.130;2022-10-30T07:33:43;100139.13;;;14.81;65.47
50636;BME280;36598;46.054;11.130;2022-10-30T07:36:08;100138.59;;;14.90;65.20
50636;BME280;36598;46.054;11.130;2022-10-30T07:38:33;100142.47;;;15.23;63.99
50636;BME280;36598;46.054;11.130;2022-10-30T07:40:58;100139.03;;;15.39;63.60
50636;BME280;36598;46.054;11.130;2022-10-30T07:43:24;100134.22;;;15.39;62.84
50636;BME280;36598;46.054;11.130;2022-10-30T07:45:49;100139.91;;;19.93;50.89
50636;BME280;36598;46.054;11.130;2022-10-30T07:48:14;100131.06;;;25.75;36.97
50636;BME280;36598;46.054;11.130;2022-10-30T07:50:40;100122.91;;;29.47;30.50
50636;BME280;36598;46.054;11.130;2022-10-30T07:53:05;100123.34;;;30.20;28.28
50636;BME280;36598;46.054;11.130;2022-10-30T07:55:30;100121.16;;;31.47;26.36
50636;BME280;36598;46.054;11.130;2022-10-30T07:57:56;100113.59;;;32.44;24.74
50636;BME280;36598;46.054;11.130;2022-10-30T08:00:21;100124.22;;;33.07;24.03
50636;BME280;36598;46.054;11.130;2022-10-30T08:02:50;100123.84;;;32.01;24.55
50636;BME280;36598;46.054;11.130;2022-10-30T08:05:15;100120.41;;;34.05;22.48
50636;BME280;36598;46.054;11.130;2022-10-30T08:07:41;100120.13;;;35.21;21.19
50636;BME280;36598;46.054;11.130;2022-10-30T08:10:06;100120.03;;;36.30;19.86
50636;BME280;36598;46.054;11.130;2022-10-30T08:12:32;100114.34;;;38.68;18.04
50636;BME280;36598;46.054;11.130;2022-10-30T08:14:58;100112.19;;;36.99;19.35
50636;BME280;36598;46.054;11.130;2022-10-30T08:17:23;100119.41;;;39.44;16.83
50636;BME280;36598;46.054;11.130;2022-10-30T08:19:48;100113.25;;;37.98;17.62
50636;BME280;36598;46.054;11.130;2022-10-30T08:22:14;100117.19;;;36.76;18.92
50636;BME280;36598;46.054;11.130;2022-10-30T08:24:39;100111.88;;;38.89;17.01
50636;BME280;36598;46.054;11.130;2022-10-30T08:27:04;100117.28;;;40.06;15.92
50636;BME280;36598;46.054;11.130;2022-10-30T08:29:30;100102.31;;;41.69;14.60
50636;BME280;36598;46.054;11.130;2022-10-30T08:31:55;100099.25;;;41.57;14.60
50636;BME280;36598;46.054;11.130;2022-10-30T08:34:21;100097.50;;;40.40;15.10
50636;BME280;36598;46.054;11.130;2022-10-30T08:36:49;100096.47;;;41.11;14.89
50636;BME280;36598;46.054;11.130;2022-10-30T08:39:15;100087.47;;;40.97;14.80
50636;BME280;36598;46.054;11.130;2022-10-30T08:41:41;100099.38;;;40.18;15.36
50636;BME280;36598;46.054;11.130;2022-10-30T08:44:06;100090.94;;;40.39;15.01
50636;BME280;36598;46.054;11.130;2022-10-30T08:46:31;100083.59;;;40.94;14.48
50636;BME280;36598;46.054;11.130;2022-10-30T08:48:56;100096.75;;;38.98;16.25
50636;BME280;36598;46.054;11.130;2022-10-30T08:51:22;100078.16;;;41.27;14.70
50636;BME280;36598;46.054;11.130;2022-10-30T08:53:47;100079.22;;;41.32;14.33
50636;BME280;36598;46.054;11.130;2022-10-30T08:56:13;100071.56;;;41.66;14.21
50636;BME280;36598;46.054;11.130;2022-10-30T08:58:39;100072.59;;;40.83;14.98
50636;BME280;36598;46.054;11.130;2022-10-30T09:01:04;100067.91;;;43.31;13.27
50636;BME280;36598;46.054;11.130;2022-10-30T09:03:29;100067.13;;;43.96;12.43
50636;BME280;36598;46.054;11.130;2022-10-30T09:05:56;100067.75;;;42.33;13.97
50636;BME280;36598;46.054;11.130;2022-10-30T09:08:21;100065.47;;;42.32;13.63
50636;BME280;36598;46.054;11.130;2022-10-30T09:10:48;100061.78;;;41.71;14.54
50636;BME280;36598;46.054;11.130;2022-10-30T09:13:17;100054.47;;;42.51;13.90
50636;BME280;36598;46.054;11.130;2022-10-30T09:15:42;100050.06;;;42.10;13.83
50636;BME280;36598;46.054;11.130;2022-10-30T09:18:08;100055.84;;;39.81;15.65
50636;BME280;36598;46.054;11.130;2022-10-30T09:20:33;100054.97;;;39.88;15.65
50636;BME280;36598;46.054;11.130;2022-10-30T09:22:58;100048.59;;;41.79;14.73
50636;BME280;36598;46.054;11.130;2022-10-30T09:25:23;100042.97;;;40.94;14.96
50636;BME280;36598;46.054;11.130;2022-10-30T09:27:49;100039.41;;;40.57;15.36
50636;BME280;36598;46.054;11.130;2022-10-30T09:30:14;100041.81;;;41.46;14.56
50636;BME280;36598;46.054;11.130;2022-10-30T09:32:39;100041.03;;;42.06;13.79
50636;BME280;36598;46.054;11.130;2022-10-30T09:35:05;100044.72;;;42.47;13.89
50636;BME280;36598;46.054;11.130;2022-10-30T09:37:37;100041.78;;;38.56;16.60
50636;BME280;36598;46.054;11.130;2022-10-30T09:40:03;100036.16;;;39.79;15.81
50636;BME280;36598;46.054;11.130;2022-10-30T09:50:59;100026.88;;;41.90;14.33
50636;BME280;36598;46.054;11.130;2022-10-30T10:02:38;100006.94;;;41.26;14.87
50636;BME280;36598;46.054;11.130;2022-10-30T10:07:38;99999.03;;;41.08;14.72
50636;BME280;36598;46.054;11.130;2022-10-30T10:10:06;99993.50;;;41.50;14.18
50636;BME280;36598;46.054;11.130;2022-10-30T10:12:44;99993.19;;;43.02;13.39
50636;BME280;36598;46.054;11.130;2022-10-30T10:15:56;99987.44;;;41.87;13.99
50636;BME280;36598;46.054;11.130;2022-10-30T10:17:56;99989.38;;;41.15;14.99
50636;BME280;36598;46.054;11.130;2022-10-30T10:20:26;99982.06;;;40.19;15.28
50636;BME280;36598;46.054;11.130;2022-10-30T10:22:52;99982.69;;;41.12;14.92
50636;BME280;36598;46.054;11.130;2022-10-30T10:25:19;99978.78;;;42.83;13.48
50636;BME280;36598;46.054;11.130;2022-10-30T10:27:51;99971.72;;;42.64;13.83
50636;BME280;36598;46.054;11.130;2022-10-30T10:30:21;99966.47;;;44.07;12.84
50636;BME280;36598;46.054;11.130;2022-10-30T10:36:15;99955.81;;;41.72;14.43
50636;BME280;36598;46.054;11.130;2022-10-30T10:48:40;99944.94;;;45.10;12.35
50636;BME280;36598;46.054;11.130;2022-10-30T10:51:12;99938.19;;;41.89;13.98
50636;BME280;36598;46.054;11.130;2022-10-30T10:53:51;99931.91;;;42.45;13.90
50636;BME280;36598;46.054;11.130;2022-10-30T10:56:18;99926.56;;;41.29;14.60
50636;BME280;36598;46.054;11.130;2022-10-30T11:01:16;99916.34;;;39.58;15.93
50636;BME280;36598;46.054;11.130;2022-10-30T11:03:56;99922.31;;;39.60;16.28
50636;BME280;36598;46.054;11.130;2022-10-30T11:06:32;99908.28;;;41.67;14.36
50636;BME280;36598;46.054;11.130;2022-10-30T11:09:12;99911.03;;;40.76;15.30
50636;BME280;36598;46.054;11.130;2022-10-30T11:11:38;99901.19;;;41.29;14.70
50636;BME280;36598;46.054;11.130;2022-10-30T11:14:09;99899.47;;;40.00;15.62
50636;BME280;36598;46.054;11.130;2022-10-30T11:19:08;99894.16;;;38.12;17.82
50636;BME280;36598;46.054;11.130;2022-10-30T11:21:34;99897.00;;;38.37;17.54
50636;BME280;36598;46.054;11.130;2022-10-30T11:24:02;99887.91;;;38.75;17.19
50636;BME280;36598;46.054;11.130;2022-10-30T11:26:31;99883.16;;;37.93;17.84
50636;BME280;36598;46.054;11.130;2022-10-30T11:36:45;99867.66;;;35.73;20.38
50636;BME280;36598;46.054;11.130;2022-10-30T11:39:31;99870.78;;;34.36;22.19
50636;BME280;36598;46.054;11.130;2022-10-30T11:42:10;99877.00;;;32.88;23.39
50636;BME280;36598;46.054;11.130;2022-10-30T11:44:55;99863.19;;;32.26;24.50
50636;BME280;36598;46.054;11.130;2022-10-30T11:47:22;99854.31;;;30.82;26.53
50636;BME280;36598;46.054;11.130;2022-10-30T11:49:52;99851.97;;;29.88;27.66
50636;BME280;36598;46.054;11.130;2022-10-30T11:52:19;99860.72;;;29.35;28.47
50636;BME280;36598;46.054;11.130;2022-10-30T11:54:46;99853.38;;;29.10;28.42
50636;BME280;36598;46.054;11.130;2022-10-30T11:57:23;99847.81;;;27.95;30.98
50636;BME280;36598;46.054;11.130;2022-10-30T11:59:53;99845.88;;;29.07;29.66
50636;BME280;36598;46.054;11.130;2022-10-30T12:02:28;99845.56;;;28.63;30.18
50636;BME280;36598;46.054;11.130;2022-10-30T12:04:54;99837.16;;;28.35;31.00
50636;BME280;36598;46.054;11.130;2022-10-30T12:09:48;99831.56;;;27.90;31.01
50636;BME280;36598;46.054;11.130;2022-10-30T12:12:20;99826.13;;;27.31;32.55
50636;BME280;36598;46.054;11.130;2022-10-30T12:14:47;99822.50;;;27.36;32.23
50636;BME280;36598;46.054;11.130;2022-10-30T12:17:13;99816.81;;;27.53;32.10
50636;BME280;36598;46.054;11.130;2022-10-30T12:19:42;99817.59;;;27.36;31.86
50636;BME280;36598;46.054;11.130;2022-10-30T12:22:09;99811.38;;;26.99;32.87
50636;BME280;36598;46.054;11.130;2022-10-30T12:24:35;99809.53;;;26.90;32.66
50636;BME280;36598;46.054;11.130;2022-10-30T12:27:10;99808.72;;;26.78;34.51
50636;BME280;36598;46.054;11.130;2022-10-30T12:32:21;99799.53;;;27.11;33.39
50636;BME280;36598;46.054;11.130;2022-10-30T12:34:59;99796.63;;;27.00;32.64
50636;BME280;36598;46.054;11.130;2022-10-30T12:37:31;99795.59;;;26.92;33.02
50636;BME280;36598;46.054;11.130;2022-10-30T12:42:23;99798.19;;;26.90;32.77
50636;BME280;36598;46.054;11.130;2022-10-30T12:50:25;99790.88;;;26.61;33.55
50636;BME280;36598;46.054;11.130;2022-10-30T12:55:36;99778.31;;;26.13;34.43
50636;BME280;36598;46.054;11.130;2022-10-30T13:00:49;99764.81;;;25.97;34.93
50636;BME280;36598;46.054;11.130;2022-10-30T13:05:56;99767.56;;;25.86;34.58
50636;BME280;36598;46.054;11.130;2022-10-30T13:08:33;99772.34;;;25.68;35.06
50636;BME280;36598;46.054;11.130;2022-10-30T13:13:45;99761.16;;;25.91;35.80
50636;BME280;36598;46.054;11.130;2022-10-30T13:16:16;99761.38;;;25.82;35.13
50636;BME280;36598;46.054;11.130;2022-10-30T13:18:43;99760.53;;;25.76;36.50
50636;BME280;36598;46.054;11.130;2022-10-30T13:28:49;99752.09;;;25.44;36.59
50636;BME280;36598;46.054;11.130;2022-10-30T13:31:26;99753.72;;;25.19;36.72
50636;BME280;36598;46.054;11.130;2022-10-30T13:36:35;99740.66;;;25.27;36.19
50636;BME280;36598;46.054;11.130;2022-10-30T13:51:43;99737.75;;;24.95;37.31
50636;BME280;36598;46.054;11.130;2022-10-30T13:54:18;99735.44;;;24.94;37.58
50636;BME280;36598;46.054;11.130;2022-10-30T13:56:45;99730.84;;;24.70;37.40
50636;BME280;36598;46.054;11.130;2022-10-30T14:04:20;99731.22;;;24.11;38.03
50636;BME280;36598;46.054;11.130;2022-10-30T14:07:02;99737.28;;;24.04;38.25
50636;BME280;36598;46.054;11.130;2022-10-30T14:09:40;99728.94;;;23.95;38.61
50636;BME280;36598;46.054;11.130;2022-10-30T14:14:54;99730.41;;;23.55;39.34
50636;BME280;36598;46.054;11.130;2022-10-30T14:17:19;99735.22;;;23.49;39.46
50636;BME280;36598;46.054;11.130;2022-10-30T14:22:28;99734.94;;;23.47;39.42
50636;BME280;36598;46.054;11.130;2022-10-30T14:24:54;99735.63;;;23.42;39.61
50636;BME280;36598;46.054;11.130;2022-10-30T14:27:20;99741.13;;;23.16;40.06
50636;BME280;36598;46.054;11.130;2022-10-30T14:29:50;99734.69;;;23.15;40.38
50636;BME280;36598;46.054;11.130;2022-10-30T14:34:44;99735.28;;;22.90;40.75
50636;BME280;36598;46.054;11.130;2022-10-30T14:37:10;99731.38;;;22.87;40.76
50636;BME280;36598;46.054;11.130;2022-10-30T14:39:40;99728.16;;;22.65;41.54
50636;BME280;36598;46.054;11.130;2022-10-30T14:52:39;99722.19;;;22.09;45.16
50636;BME280;36598;46.054;11.130;2022-10-30T15:00:27;99724.59;;;21.78;46.94
50636;BME280;36598;46.054;11.130;2022-10-30T15:08:10;99725.84;;;21.53;48.99
50636;BME280;36598;46.054;11.130;2022-10-30T15:10:42;99727.59;;;21.50;49.25
50636;BME280;36598;46.054;11.130;2022-10-30T15:13:17;99726.78;;;21.49;49.96
50636;BME280;36598;46.054;11.130;2022-10-30T15:15:44;99727.34;;;21.30;50.83
50636;BME280;36598;46.054;11.130;2022-10-30T15:18:14;99726.84;;;21.40;50.53
50636;BME280;36598;46.054;11.130;2022-10-30T15:20:41;99723.19;;;21.07;51.33